Last 7 Days

Abernathy 1

Hourly Data | America/Los_Angeles
as of 6/4/20 8:18 AM PDT
Date & Time Temp (°F) RH (%) Dew Pt (°F) Wind Spd (mph) Wind Dir (°) Wind Gust (mph) Latest Rain (In) Daily Rain (In) Daily Min Temp (°F) Daily Max Temp (°F)
6/4/20 - 0800 68.2 69 57.8 3.5 WSW | 249 6.7 0.00 0.00 59.8 72.4
6/4/20 - 0700 60.6 79 54.1 1.1 WNW | 297 2.8 0.00 0.00 59.8 66.3
6/4/20 - 0600 61.5 79 54.9 2.9 WSW | 246 8.0 0.00 0.00 60.9 66.3
6/4/20 - 0500 61.8 79 55.3 3.9 WSW | 255 7.1 0.00 0.00 61.3 66.3
6/4/20 - 0400 62.5 77 55.2 5.0 WSW | 247 9.2 0.00 0.00 62.0 66.3
6/4/20 - 0300 64.2 72 55.0 6.2 WSW | 248 10.7 0.00 0.00 63.0 66.3
6/4/20 - 0200 65.3 68 54.4 6.0 WSW | 247 11.7 0.00 0.00 64.7 66.3
6/4/20 - 0100 68.3 61 54.5 6.5 WSW | 239 11.0 0.00 0.00 63.0 99.2
6/4/20 - 0000 71.4 55 54.5 5.4 WSW | 238 11.8 0.00 0.00 63.0 99.2
6/3/20 - 2300 75.0 46 52.9 3.6 W | 261 6.7 0.00 0.00 63.0 99.2
6/3/20 - 2200 79.0 42 53.9 6.7 WSW | 252 12.6 0.00 0.00 63.0 99.2
6/3/20 - 2100 83.3 34 51.7 6.3 W | 263 12.2 0.00 0.00 63.0 99.2
6/3/20 - 2000 91.4 24 49.3 4.6 W | 274 12.6 0.00 0.00 63.0 99.2
6/3/20 - 1900 95.2 20 48.4 7.3 WSW | 257 15.7 0.00 0.00 63.0 99.2
6/3/20 - 1800 96.9 24 54.2 8.3 W | 270 15.5 0.00 0.00 63.0 99.2
6/3/20 - 1700 98.2 26 56.9 8.5 W | 260 17.6 0.00 0.00 63.0 99.2
6/3/20 - 1600 98.4 21 51.8 6.6 WSW | 258 13.2 0.00 0.00 63.0 99.2
6/3/20 - 1500 97.5 28 58.6 5.0 SW | 222 11.6 0.00 0.00 63.0 98.3
6/3/20 - 1400 96.2 29 58.4 3.0 S | 169 8.6 0.00 0.00 63.0 97.1
6/3/20 - 1300 94.6 31 59.5 3.0 SSE | 149 7.5 0.00 0.00 63.0 95.4
6/3/20 - 1200 92.1 34 59.9 2.2 SSW | 212 7.5 0.00 0.00 63.0 93.9
6/3/20 - 1100 88.4 37 59.0 3.3 SW | 216 7.3 0.00 0.00 63.0 90.6
6/3/20 - 1000 85.0 40 58.1 2.1 W | 276 5.9 0.00 0.00 63.0 86.9
6/3/20 - 0900 78.9 48 57.6 1.5 W | 274 4.5 0.00 0.00 63.0 82.9
6/3/20 - 0800 71.4 59 56.2 1.2 NW | 315 3.4 0.00 0.00 63.0 75.0
6/3/20 - 0700 64.0 70 53.9 1.4 NW | 325 3.6 0.00 0.00 63.0 70.1
6/3/20 - 0600 65.0 65 52.9 2.2 W | 278 5.5 0.00 0.00 64.0 70.1
6/3/20 - 0500 65.4 67 54.1 3.8 WSW | 250 7.1 0.00 0.00 64.9 70.1
6/3/20 - 0400 65.8 67 54.7 3.6 WSW | 252 6.5 0.00 0.00 64.9 70.1
6/3/20 - 0300 66.8 63 53.6 3.0 WSW | 250 5.3 0.00 0.00 65.1 70.1
6/3/20 - 0200 68.9 58 53.3 3.9 WSW | 249 7.3 0.00 0.00 68.0 70.1
6/3/20 - 0100 71.1 50 51.3 3.6 W | 265 7.7 0.00 0.00 59.1 95.3
6/3/20 - 0000 71.9 48 51.1 3.1 W | 262 6.6 0.00 0.00 59.1 95.3
6/2/20 - 2300 73.8 45 51.4 3.2 WSW | 247 6.9 0.00 0.00 59.1 95.3
6/2/20 - 2200 75.6 43 51.8 5.0 WSW | 237 9.4 0.00 0.00 59.1 95.3
6/2/20 - 2100 80.1 36 51.0 3.6 WSW | 257 9.0 0.00 0.00 59.1 95.3
6/2/20 - 2000 86.7 29 50.4 6.6 W | 267 13.5 0.00 0.00 59.1 95.3
6/2/20 - 1900 90.9 28 53.2 8.9 W | 260 17.3 0.00 0.00 59.1 95.3
6/2/20 - 1800 93.3 29 56.3 8.8 WSW | 255 15.2 0.00 0.00 59.1 95.3
6/2/20 - 1700 94.4 29 57.2 8.6 WSW | 254 16.3 0.00 0.00 59.1 95.3
6/2/20 - 1600 94.5 30 58.7 5.8 W | 259 13.8 0.00 0.00 59.1 95.3
6/2/20 - 1500 93.5 32 59.2 4.0 SSW | 200 10.5 0.00 0.00 59.1 93.9
6/2/20 - 1400 92.6 33 59.1 3.8 WSW | 237 11.0 0.00 0.00 59.1 93.6
6/2/20 - 1300 91.2 35 59.8 3.7 S | 180 10.2 0.00 0.00 59.1 92.1
6/2/20 - 1200 89.1 37 59.4 2.9 S | 176 8.9 0.00 0.00 59.1 90.7
6/2/20 - 1100 85.5 39 57.9 3.5 SSW | 206 8.0 0.00 0.00 59.1 87.1
6/2/20 - 1000 80.4 46 57.6 2.2 SSW | 196 7.4 0.00 0.00 59.1 83.5
6/2/20 - 0900 74.6 56 57.8 2.5 SW | 236 5.4 0.00 0.00 59.1 77.5
6/2/20 - 0800 67.6 69 57.1 2.1 SW | 229 5.5 0.00 0.00 59.1 72.0
6/2/20 - 0700 60.9 81 55.0 3.2 WSW | 256 5.8 0.00 0.00 59.1 63.7
6/2/20 - 0600 59.2 84 54.5 3.3 WSW | 255 5.7 0.00 0.00 59.1 62.6
6/2/20 - 0500 59.7 84 54.8 3.4 WSW | 252 5.9 0.00 0.00 59.2 62.6
6/2/20 - 0400 60.2 83 55.0 3.8 WSW | 251 6.4 0.00 0.00 60.0 62.6
6/2/20 - 0300 61.3 81 55.3 4.1 WSW | 248 7.1 0.00 0.00 60.7 62.6
6/2/20 - 0200 61.9 78 54.9 3.6 WSW | 252 6.4 0.00 0.00 61.4 62.6
6/2/20 - 0100 63.1 74 54.8 3.6 WSW | 253 5.9 0.00 0.00 56.9 86.6
6/2/20 - 0000 64.4 71 54.7 3.8 WSW | 250 7.0 0.00 0.00 56.9 86.6
6/1/20 - 2300 66.1 64 53.5 4.4 WSW | 250 7.8 0.00 0.00 56.9 86.6
6/1/20 - 2200 67.6 57 51.8 4.0 WSW | 246 6.9 0.00 0.00 56.9 86.6
6/1/20 - 2100 70.7 50 50.9 5.2 WSW | 256 12.8 0.00 0.00 56.9 86.6
6/1/20 - 2000 75.1 51 55.5 8.2 WSW | 254 14.2 0.00 0.00 56.9 86.6
6/1/20 - 1900 80.6 44 56.9 8.5 WSW | 255 15.0 0.00 0.00 56.9 86.6
6/1/20 - 1800 83.4 42 57.7 9.4 WSW | 253 16.6 0.00 0.00 56.9 86.6
6/1/20 - 1700 85.6 36 55.4 8.4 WSW | 256 16.3 0.00 0.00 56.9 86.6
6/1/20 - 1600 85.1 37 55.6 7.2 WSW | 237 13.4 0.00 0.00 56.9 86.1
6/1/20 - 1500 83.5 39 56.2 6.7 WSW | 243 13.2 0.00 0.00 56.9 84.6
6/1/20 - 1400 81.4 42 56.2 7.7 WSW | 240 14.6 0.00 0.00 56.9 82.9
6/1/20 - 1300 79.8 44 55.8 7.6 WSW | 239 13.8 0.00 0.00 56.9 80.8
6/1/20 - 1200 76.3 50 56.2 7.3 WSW | 244 13.0 0.00 0.00 56.9 78.8
6/1/20 - 1100 71.8 58 56.4 7.7 WSW | 246 13.3 0.00 0.00 56.9 74.2
6/1/20 - 1000 66.9 66 55.4 7.6 WSW | 254 14.3 0.00 0.00 56.9 69.7
6/1/20 - 0900 62.0 75 54.1 6.9 W | 263 13.9 0.00 0.00 56.9 65.5
6/1/20 - 0800 58.8 81 53.0 6.4 WSW | 249 11.6 0.00 0.00 56.9 59.6
6/1/20 - 0700 57.6 81 52.0 5.4 WSW | 254 9.6 0.00 0.00 56.9 58.3
6/1/20 - 0600 57.1 79 50.8 5.8 W | 260 11.1 0.00 0.00 56.9 58.3
6/1/20 - 0500 57.4 79 51.1 6.3 WSW | 239 13.0 0.00 0.00 57.2 58.3
6/1/20 - 0400 57.3 80 51.2 6.6 SW | 236 13.5 0.00 0.00 57.2 58.3
6/1/20 - 0300 57.9 78 51.1 6.4 SW | 228 11.5 0.00 0.00 57.6 58.3
6/1/20 - 0200 58.1 79 51.5 6.4 WSW | 243 15.6 0.00 0.00 58.0 58.3
6/1/20 - 0100 58.3 78 51.4 7.3 SW | 234 13.9 0.00 0.00 55.6 78.1
6/1/20 - 0000 59.3 75 51.5 6.5 WSW | 248 13.3 0.00 0.00 55.6 78.1
5/31/20 - 2300 60.0 73 51.5 5.9 WSW | 245 11.7 0.00 0.00 55.6 78.1
5/31/20 - 2200 61.7 69 51.5 5.3 WSW | 254 9.8 0.00 0.00 55.6 78.1
5/31/20 - 2100 63.8 64 51.4 7.1 WSW | 253 12.4 0.00 0.00 55.6 78.1
5/31/20 - 2000 67.7 59 53.1 8.2 W | 259 14.4 0.00 0.00 55.6 78.1
5/31/20 - 1900 71.7 54 54.4 8.5 WSW | 258 18.1 0.00 0.00 55.6 78.1
5/31/20 - 1800 75.6 50 55.6 8.2 WSW | 255 15.1 0.00 0.00 55.6 78.1
5/31/20 - 1700 76.5 49 56.1 7.7 WSW | 255 14.6 0.00 0.00 55.6 77.9
5/31/20 - 1600 76.4 50 56.4 7.8 WSW | 254 14.6 0.00 0.00 55.6 77.9
5/31/20 - 1500 74.7 52 55.8 7.7 WSW | 256 13.8 0.00 0.00 55.6 76.3
5/31/20 - 1400 74.5 51 55.4 7.7 WSW | 254 13.5 0.00 0.00 55.6 76.3
5/31/20 - 1300 75.6 51 56.2 7.6 WSW | 239 14.3 0.00 0.00 55.6 76.3
5/31/20 - 1200 74.2 53 56.2 7.3 WSW | 244 15.5 0.00 0.00 55.6 76.1
5/31/20 - 1100 70.4 60 55.7 7.2 WSW | 246 12.8 0.00 0.00 55.6 73.0
5/31/20 - 1000 67.4 65 55.2 6.2 WSW | 252 12.3 0.00 0.00 55.6 69.0
5/31/20 - 0900 64.0 72 54.9 6.2 W | 264 12.8 0.00 0.00 55.6 66.4
5/31/20 - 0800 60.4 80 54.4 5.2 W | 261 11.4 0.00 0.00 55.6 61.5
5/31/20 - 0700 57.0 88 53.5 3.9 WSW | 253 8.5 0.00 0.00 55.6 58.9
5/31/20 - 0600 56.0 88 52.4 3.5 WSW | 253 9.1 0.00 0.00 55.6 58.7
5/31/20 - 0500 56.8 85 52.4 3.9 WSW | 245 8.2 0.00 0.00 56.1 58.7
5/31/20 - 0400 58.5 82 53.2 5.0 W | 261 10.2 0.00 0.00 58.1 58.7
5/31/20 - 0300 58.6 84 53.8 6.3 WSW | 250 12.1 0.00 0.00 58.1 58.7
5/31/20 - 0200 58.5 84 53.8 6.6 WSW | 245 12.6 0.00 0.00 58.1 58.7
5/31/20 - 0100 58.3 84 53.4 5.8 WSW | 247 13.2 0.00 0.00 58.0 79.7
5/31/20 - 0000 59.2 82 53.7 5.9 W | 261 11.7 0.00 0.00 58.7 79.7
5/30/20 - 2300 60.4 81 54.5 5.4 WSW | 249 10.6 0.00 0.00 59.8 79.7
5/30/20 - 2200 61.9 78 55.2 6.1 WSW | 240 11.8 0.00 0.00 60.6 79.7
5/30/20 - 2100 63.4 73 54.5 7.8 WSW | 254 15.6 0.00 0.00 60.6 79.7
5/30/20 - 2000 68.2 61 54.1 7.5 W | 260 14.5 0.00 0.00 60.6 79.7
5/30/20 - 1900 71.9 54 54.4 9.2 WSW | 255 17.1 0.00 0.00 60.6 79.7
5/30/20 - 1800 71.6 59 56.5 9.2 WSW | 248 17.0 0.00 0.00 60.6 79.7
5/30/20 - 1700 71.4 60 57.0 10.2 WSW | 252 18.8 0.00 0.00 60.6 79.7
5/30/20 - 1600 76.6 51 57.2 8.0 SW | 231 18.6 0.00 0.00 60.6 79.7
5/30/20 - 1500 75.0 51 55.4 4.4 S | 187 10.9 0.00 0.00 60.6 79.7
5/30/20 - 1400 77.1 46 54.7 3.4 SE | 125 10.6 0.00 0.00 60.6 79.7
5/30/20 - 1300 77.8 46 55.7 3.9 ESE | 121 11.6 0.00 0.00 60.6 79.5
5/30/20 - 1200 74.6 51 55.1 3.0 SSE | 149 8.1 0.00 0.00 60.6 75.8
5/30/20 - 1100 73.5 54 55.9 3.7 ESE | 118 9.3 0.00 0.00 60.6 75.3
5/30/20 - 1000 68.7 65 56.6 3.1 ESE | 123 7.8 0.00 0.00 60.6 70.5
5/30/20 - 0900 63.9 77 56.6 2.5 SSW | 212 6.6 0.00 0.00 60.6 66.0
5/30/20 - 0800 63.0 76 55.4 1.1 WNW | 287 4.7 0.00 0.00 60.6 64.2
5/30/20 - 0700 61.4 78 54.3 2.4 WNW | 283 5.7 0.00 0.00 60.6 61.9
5/30/20 - 0600 61.2 76 53.4 3.4 W | 273 7.4 0.00 0.00 60.6 61.5
5/30/20 - 0500 61.3 76 53.8 4.6 W | 276 11.1 0.00 0.00 60.6 61.5
5/30/20 - 0400 61.3 78 54.3 5.0 W | 259 10.0 0.00 0.00 60.6 61.5
5/30/20 - 0300 60.8 80 54.6 5.4 WSW | 258 12.6 0.00 0.00 60.6 61.2
5/30/20 - 0200 61.0 79 54.3 8.1 WSW | 258 17.9 0.00 0.00 60.8 61.2
5/30/20 - 0100 60.9 77 53.6 9.1 WSW | 257 18.1 0.00 0.00 54.7 75.8
5/30/20 - 0000 61.2 74 53.0 10.3 W | 259 22.2 0.00 0.00 54.7 75.8
5/29/20 - 2300 60.8 75 53.0 11.0 WSW | 255 20.2 0.00 0.00 54.7 75.8
5/29/20 - 2200 61.3 75 53.4 10.8 WSW | 249 19.9 0.00 0.00 54.7 75.8
5/29/20 - 2100 62.8 73 54.2 10.4 WSW | 255 19.8 0.00 0.00 54.7 75.8
5/29/20 - 2000 65.7 69 55.4 10.9 WSW | 252 19.8 0.00 0.00 54.7 75.8
5/29/20 - 1900 68.1 65 55.8 11.9 WSW | 255 21.7 0.00 0.00 54.7 75.8
5/29/20 - 1800 71.2 58 55.6 12.8 WSW | 254 22.4 0.00 0.00 54.7 75.8
5/29/20 - 1700 73.8 54 56.0 11.7 W | 261 21.4 0.00 0.00 54.7 75.8
5/29/20 - 1600 74.7 53 56.3 11.2 W | 260 20.8 0.00 0.00 54.7 75.8
5/29/20 - 1500 74.2 54 56.6 12.2 WSW | 253 20.3 0.00 0.00 54.7 75.8
5/29/20 - 1400 73.0 56 56.5 12.5 WSW | 248 21.0 0.00 0.00 54.7 73.9
5/29/20 - 1300 71.0 60 56.5 12.6 WSW | 249 22.3 0.00 0.00 54.7 72.6
5/29/20 - 1200 70.4 60 56.1 12.8 WSW | 249 21.0 0.00 0.00 54.7 71.2
5/29/20 - 1100 68.1 64 55.3 11.9 WSW | 248 19.8 0.00 0.00 54.7 70.7
5/29/20 - 1000 64.7 68 54.1 10.8 WSW | 245 21.5 0.00 0.00 54.7 65.9
5/29/20 - 0900 59.6 78 52.8 9.4 WSW | 252 18.2 0.00 0.00 54.7 62.7
5/29/20 - 0800 58.2 80 52.1 10.0 WSW | 246 20.0 0.00 0.00 54.7 59.3
5/29/20 - 0700 55.9 86 51.9 8.1 WSW | 256 16.4 0.00 0.00 54.7 58.8
5/29/20 - 0600 55.2 87 51.5 9.4 WSW | 247 16.6 0.00 0.00 54.7 56.3
5/29/20 - 0500 55.2 89 52.0 6.0 W | 263 15.9 0.00 0.00 54.9 56.3
5/29/20 - 0400 55.4 88 52.0 8.7 WSW | 250 19.8 0.00 0.00 54.9 56.3
5/29/20 - 0300 55.9 86 51.8 9.4 WSW | 245 16.2 0.00 0.00 54.9 56.3
5/29/20 - 0200 55.4 88 52.0 10.6 WSW | 243 18.1 0.00 0.00 54.9 56.0
5/29/20 - 0100 56.2 89 53.0 10.3 WSW | 239 19.3 0.00 0.00 56.0 91.7
5/29/20 - 0000 56.7 88 53.2 8.4 WSW | 240 19.9 0.00 0.00 56.4 91.7
5/28/20 - 2300 57.6 85 53.3 16.3 WSW | 252 26.5 0.00 0.00 56.4 91.7
5/28/20 - 2200 61.2 78 54.2 12.5 WSW | 246 21.2 0.00 0.00 56.4 91.7
5/28/20 - 2100 65.1 69 54.8 9.8 WSW | 243 17.0 0.00 0.00 56.4 91.7
5/28/20 - 2000 73.4 55 56.2 9.3 WSW | 244 14.8 0.00 0.00 56.4 91.7
5/28/20 - 1900 80.9 46 58.4 9.8 WSW | 246 16.3 0.00 0.00 56.4 91.7
5/28/20 - 1800 87.2 41 60.7 9.6 WSW | 246 18.2 0.00 0.00 56.4 91.7
5/28/20 - 1700 89.5 41 62.7 9.4 WSW | 241 16.2 0.00 0.00 56.4 91.7
5/28/20 - 1600 91.0 36 60.6 9.2 WSW | 244 15.2 0.00 0.00 56.4 91.7
5/28/20 - 1500 89.8 35 58.2 9.3 WSW | 241 15.7 0.00 0.00 56.4 90.2
5/28/20 - 1400 87.8 36 57.7 8.9 WSW | 242 15.6 0.00 0.00 56.4 90.0
5/28/20 - 1300 84.7 42 59.3 8.1 SW | 231 15.3 0.00 0.00 56.4 86.4
5/28/20 - 1200 80.3 47 58.3 7.9 SW | 232 14.6 0.00 0.00 56.4 82.9
5/28/20 - 1100 74.7 54 57.0 8.1 SW | 232 15.0 0.00 0.00 56.4 77.4
5/28/20 - 1000 69.4 62 55.9 8.2 WSW | 239 13.4 0.00 0.00 56.4 72.3
5/28/20 - 0900 65.2 70 55.1 7.6 SW | 231 14.9 0.00 0.00 56.4 66.6
Max 98.4 89 62.7 16.3 - 26.5 0.00 0.00 68.0 99.2
Avg 71.0 60 54.8 6.5 - 12.8 0.00 - - -
Min 55.2 20 48.4 1.1 - 2.8 0.00 0.00 54.7 56.0
Total - - - - - - 0.00 - - -
Tip: Bookmark this page for easy future reference